createdAt,value
2023-04-08T00:02:07.296Z,16.90
2023-04-08T00:04:35.779Z,15.77
2023-04-08T00:07:04.110Z,18.07
2023-04-08T00:09:33.736Z,14.70
2023-04-08T00:12:02.367Z,17.73
2023-04-08T00:14:30.752Z,18.53
2023-04-08T00:16:58.855Z,18.57
2023-04-08T00:19:26.981Z,16.70
2023-04-08T00:21:55.227Z,16.90
2023-04-08T00:24:23.821Z,14.40
2023-04-08T00:26:53.257Z,15.47
2023-04-08T00:29:21.694Z,16.80
2023-04-08T00:31:49.739Z,15.60
2023-04-08T00:34:17.765Z,13.13
2023-04-08T00:36:47.099Z,16.43
2023-04-08T00:39:15.768Z,14.40
2023-04-08T00:41:44.127Z,15.33
2023-04-08T00:44:13.688Z,17.73
2023-04-08T00:46:41.819Z,15.13
2023-04-08T00:49:09.902Z,16.63
2023-04-08T00:51:38.007Z,16.67
2023-04-08T00:54:06.355Z,16.30
2023-04-08T00:56:35.427Z,15.47
2023-04-08T00:59:04.501Z,13.80
2023-04-08T01:01:44.445Z,15.43
2023-04-08T01:04:22.748Z,17.33
2023-04-08T01:06:55.482Z,15.50
2023-04-08T01:09:29.010Z,15.03
2023-04-08T01:11:58.855Z,15.70
2023-04-08T01:14:29.202Z,14.23
2023-04-08T01:17:29.243Z,15.33
2023-04-08T01:20:00.494Z,17.87
2023-04-08T01:22:42.193Z,14.63
2023-04-08T01:25:14.006Z,18.97
2023-04-08T01:27:44.253Z,15.87
2023-04-08T01:30:13.521Z,16.47
2023-04-08T01:32:43.826Z,18.00
2023-04-08T01:35:12.448Z,16.63
2023-04-08T01:37:41.562Z,17.10
2023-04-08T01:40:11.521Z,17.13
2023-04-08T01:42:40.429Z,16.50
2023-04-08T01:45:12.043Z,16.53
2023-04-08T01:47:41.237Z,15.53
2023-04-08T01:50:11.191Z,16.03
2023-04-08T01:52:41.772Z,16.03
2023-04-08T01:55:10.304Z,15.07
2023-04-08T01:57:39.724Z,18.80
2023-04-08T02:00:11.193Z,15.77
2023-04-08T02:02:49.170Z,16.27
2023-04-08T02:05:17.709Z,15.43
2023-04-08T02:07:46.748Z,14.33
2023-04-08T02:10:14.892Z,19.50
2023-04-08T02:12:44.078Z,16.40
2023-04-08T02:15:14.969Z,15.70
2023-04-08T02:17:47.092Z,14.23
2023-04-08T02:20:20.111Z,16.30
2023-04-08T02:22:51.594Z,15.50
2023-04-08T02:25:24.725Z,14.13
2023-04-08T02:27:54.070Z,13.90
2023-04-08T02:30:26.522Z,16.63
2023-04-08T02:32:55.564Z,17.73
2023-04-08T02:35:24.604Z,14.57
2023-04-08T02:37:52.977Z,15.60
2023-04-08T02:40:28.833Z,16.10
2023-04-08T02:42:58.029Z,15.43
2023-04-08T02:45:31.465Z,16.07
2023-04-08T02:48:01.955Z,17.20
2023-04-08T02:50:30.083Z,14.30
2023-04-08T02:52:58.115Z,16.10
2023-04-08T02:55:26.208Z,15.33
2023-04-08T02:57:54.272Z,19.03
2023-04-08T03:00:22.418Z,14.37
2023-04-08T03:02:51.993Z,15.23
2023-04-08T03:05:20.485Z,17.70
2023-04-08T03:07:48.578Z,17.13
2023-04-08T03:10:16.805Z,18.17
2023-04-08T03:12:44.799Z,19.57
2023-04-08T03:15:12.807Z,18.47
2023-04-08T03:17:40.913Z,15.77
2023-04-08T03:20:11.323Z,18.80
2023-04-08T03:22:39.371Z,18.43
2023-04-08T03:25:08.234Z,16.10
2023-04-08T03:27:36.303Z,21.03
2023-04-08T03:30:04.602Z,18.10
2023-04-08T03:32:33.708Z,15.77
2023-04-08T03:35:01.745Z,20.10
2023-04-08T03:37:31.129Z,16.40
2023-04-08T03:39:59.160Z,17.73
2023-04-08T03:42:27.288Z,18.10
2023-04-08T03:44:55.293Z,19.10
2023-04-08T03:47:23.338Z,22.40
2023-04-08T03:49:53.544Z,21.43
2023-04-08T03:52:21.620Z,22.63
2023-04-08T03:54:50.991Z,22.50
2023-04-08T03:57:19.020Z,22.63
2023-04-08T03:59:47.033Z,20.17
2023-04-08T04:02:15.089Z,24.67
2023-04-08T04:04:43.215Z,26.60
2023-04-08T04:07:11.247Z,21.33
2023-04-08T04:09:39.341Z,20.63
2023-04-08T04:12:08.729Z,21.70
2023-04-08T04:14:36.793Z,16.77
2023-04-08T04:17:04.857Z,17.03
2023-04-08T04:19:33.148Z,16.30
2023-04-08T04:22:01.242Z,15.27
2023-04-08T04:24:29.232Z,19.37
2023-04-08T04:26:57.297Z,18.10
2023-04-08T04:29:26.687Z,17.77
2023-04-08T04:31:54.717Z,19.30
2023-04-08T04:34:22.814Z,17.03
2023-04-08T04:36:50.820Z,16.67
2023-04-08T04:39:18.839Z,17.07
2023-04-08T04:41:49.009Z,20.00
2023-04-08T04:44:17.062Z,17.37
2023-04-08T04:46:46.605Z,18.73
2023-04-08T04:49:14.705Z,19.10
2023-04-08T04:51:42.756Z,19.80
2023-04-08T04:54:10.772Z,20.23
2023-04-08T04:56:38.819Z,19.20
2023-04-08T04:59:06.915Z,18.90
2023-04-08T05:01:34.954Z,17.30
2023-04-08T05:04:04.415Z,16.83
2023-04-08T05:06:32.427Z,19.33
2023-04-08T05:09:00.539Z,19.80
2023-04-08T05:11:28.578Z,18.80
2023-04-08T05:13:56.636Z,20.53
2023-04-08T05:16:24.834Z,17.10
2023-04-08T05:18:53.031Z,15.30
2023-04-08T05:21:22.551Z,17.63
2023-04-08T05:23:52.931Z,19.10
2023-04-08T05:26:21.733Z,16.87
2023-04-08T05:28:50.033Z,23.20
2023-04-08T05:31:18.428Z,19.30
2023-04-08T05:33:46.524Z,21.23
2023-04-08T05:36:15.337Z,19.07
2023-04-08T05:38:44.747Z,23.73
2023-04-08T05:41:12.811Z,23.13
2023-04-08T05:43:41.267Z,24.13
2023-04-08T05:46:09.811Z,22.67
2023-04-08T05:48:38.162Z,24.17
2023-04-08T05:51:06.224Z,20.90
2023-04-08T05:53:34.253Z,25.77
2023-04-08T05:56:03.661Z,22.23
2023-04-08T05:58:31.700Z,22.43
2023-04-08T06:00:59.857Z,21.67
2023-04-08T06:03:28.127Z,23.30
2023-04-08T06:05:56.484Z,24.73
2023-04-08T06:08:24.774Z,23.03
2023-04-08T06:10:52.874Z,27.63
2023-04-08T06:13:22.260Z,24.47
2023-04-08T06:15:50.291Z,23.87
2023-04-08T06:18:18.464Z,26.93
2023-04-08T06:20:46.536Z,27.37
2023-04-08T06:23:14.557Z,30.10
2023-04-08T06:25:42.988Z,28.13
2023-04-08T06:28:11.015Z,29.87
2023-04-08T06:30:40.395Z,27.13
2023-04-08T06:33:08.514Z,25.90
2023-04-08T06:35:37.372Z,29.47
2023-04-08T06:38:05.526Z,29.93
2023-04-08T06:40:33.677Z,28.70
2023-04-08T06:43:01.735Z,30.93
2023-04-08T06:45:35.965Z,29.60
2023-04-08T06:48:06.809Z,27.80
2023-04-08T06:50:34.935Z,30.40
2023-04-08T06:53:02.963Z,29.67
2023-04-08T06:55:31.118Z,29.53
2023-04-08T06:57:59.139Z,33.30
2023-04-08T07:00:27.297Z,34.33
2023-04-08T07:02:55.438Z,33.63
2023-04-08T07:05:24.838Z,29.57
2023-04-08T07:07:52.883Z,37.87
2023-04-08T07:10:21.261Z,31.33
2023-04-08T07:12:49.314Z,32.23
2023-04-08T07:15:17.464Z,34.43
2023-04-08T07:17:46.258Z,36.57
2023-04-08T07:20:14.735Z,34.67
2023-04-08T07:22:47.212Z,34.60
2023-04-08T07:25:15.273Z,38.53
2023-04-08T07:27:43.352Z,32.37
2023-04-08T07:30:11.781Z,35.67
2023-04-08T07:32:39.903Z,32.30
2023-04-08T07:35:08.493Z,29.73
2023-04-08T07:37:36.542Z,34.40
2023-04-08T07:40:07.087Z,34.47
2023-04-08T07:42:35.133Z,33.57
2023-04-08T07:45:03.947Z,33.77
2023-04-08T07:47:31.964Z,34.93
2023-04-08T07:50:00.026Z,33.20
2023-04-08T07:52:28.195Z,31.60
2023-04-08T07:54:56.259Z,28.63
2023-04-08T07:57:26.550Z,33.20
2023-04-08T07:59:54.939Z,26.23
2023-04-08T08:02:23.185Z,25.50
2023-04-08T08:04:51.566Z,23.37
2023-04-08T08:07:19.612Z,26.33
2023-04-08T08:09:47.623Z,22.73
2023-04-08T08:12:16.041Z,21.73
2023-04-08T08:14:45.411Z,20.83
2023-04-08T08:17:13.432Z,21.33
2023-04-08T08:19:41.488Z,25.30
2023-04-08T08:22:09.578Z,26.87
2023-04-08T08:24:37.984Z,24.77
2023-04-08T08:27:06.433Z,25.83
2023-04-08T08:29:34.472Z,24.87
2023-04-08T08:32:04.312Z,28.13
2023-04-08T08:34:32.383Z,31.10
2023-04-08T08:37:00.702Z,28.30
2023-04-08T08:39:28.779Z,31.57
2023-04-08T08:41:57.976Z,31.97
2023-04-08T08:44:27.070Z,34.83
2023-04-08T08:46:55.390Z,37.47
2023-04-08T08:49:24.972Z,32.80
2023-04-08T08:51:55.982Z,34.50
2023-04-08T08:54:24.249Z,31.83
2023-04-08T08:56:53.048Z,36.00
2023-04-08T08:59:21.225Z,33.33
2023-04-08T09:01:49.398Z,35.37
2023-04-08T09:04:23.076Z,33.00
2023-04-08T09:07:10.470Z,34.03
2023-04-08T09:09:50.083Z,30.13
2023-04-08T09:12:18.434Z,28.27
2023-04-08T09:14:47.020Z,27.77
2023-04-08T09:17:15.780Z,25.33
2023-04-08T09:20:09.643Z,26.03
2023-04-08T09:22:57.460Z,25.90
2023-04-08T09:25:26.440Z,27.97
2023-04-08T09:27:54.592Z,26.80
2023-04-08T09:30:25.115Z,29.23
2023-04-08T09:32:55.523Z,30.37
2023-04-08T09:35:24.391Z,31.10
2023-04-08T09:37:53.808Z,28.63
2023-04-08T09:40:23.048Z,31.33
2023-04-08T09:42:56.216Z,27.23
2023-04-08T09:45:28.236Z,29.17
2023-04-08T09:47:59.201Z,31.30
2023-04-08T09:50:33.620Z,28.43
2023-04-08T09:53:12.008Z,29.20
2023-04-08T09:55:41.051Z,29.50
2023-04-08T09:58:16.806Z,28.57
2023-04-08T10:00:50.690Z,27.27
2023-04-08T10:03:28.538Z,29.37
2023-04-08T10:05:57.500Z,26.20
2023-04-08T10:08:27.729Z,28.87
2023-04-08T10:10:57.457Z,26.10
2023-04-08T10:13:28.243Z,40.93
2023-04-08T10:16:20.089Z,30.93
2023-04-08T10:18:49.802Z,26.57
2023-04-08T10:21:38.020Z,27.90
2023-04-08T10:24:11.657Z,24.77
2023-04-08T10:26:42.190Z,26.23
2023-04-08T10:29:35.681Z,24.70
2023-04-08T10:32:03.853Z,25.03
2023-04-08T10:34:31.973Z,21.60
2023-04-08T10:37:02.164Z,24.23
2023-04-08T10:39:32.551Z,23.13
2023-04-08T10:42:04.158Z,21.70
2023-04-08T10:44:32.302Z,23.43
2023-04-08T10:47:00.304Z,26.17
2023-04-08T10:49:34.918Z,28.33
2023-04-08T10:52:08.174Z,26.93
2023-04-08T10:54:38.367Z,21.17
2023-04-08T10:57:07.417Z,28.60
2023-04-08T10:59:36.847Z,24.93
2023-04-08T11:02:04.999Z,21.83
2023-04-08T11:04:33.312Z,26.17
2023-04-08T11:07:01.487Z,27.60
2023-04-08T11:09:29.487Z,24.30
2023-04-08T11:11:58.921Z,30.80
2023-04-08T11:14:27.175Z,25.50
2023-04-08T11:16:55.296Z,27.50
2023-04-08T11:19:23.896Z,23.60
2023-04-08T11:21:52.649Z,25.60
2023-04-08T11:24:22.407Z,25.23
2023-04-08T11:26:50.910Z,23.93
2023-04-08T11:29:21.140Z,25.13
2023-04-08T11:31:50.030Z,25.00
2023-04-08T11:34:24.689Z,27.57
2023-04-08T11:36:53.280Z,24.57
2023-04-08T11:39:24.311Z,24.23
2023-04-08T11:41:53.197Z,24.67
2023-04-08T11:44:31.752Z,22.23
2023-04-08T11:47:01.917Z,29.20
2023-04-08T11:49:44.452Z,22.73
2023-04-08T11:52:12.499Z,23.53
2023-04-08T11:54:43.634Z,23.23
2023-04-08T11:57:11.713Z,22.93
2023-04-08T11:59:41.609Z,28.33
2023-04-08T12:02:10.096Z,27.63
2023-04-08T12:04:38.221Z,29.03
2023-04-08T12:07:06.309Z,30.33
2023-04-08T12:09:34.466Z,33.13
2023-04-08T12:12:03.294Z,30.90
2023-04-08T12:14:32.141Z,30.53
2023-04-08T12:17:01.536Z,30.50
2023-04-08T12:19:30.155Z,28.20
2023-04-08T12:21:59.792Z,26.63
2023-04-08T12:24:27.805Z,26.37
2023-04-08T12:26:56.687Z,24.67
2023-04-08T12:29:24.717Z,22.20
2023-04-08T12:31:53.291Z,26.27
2023-04-08T12:34:23.173Z,23.43
2023-04-08T12:36:51.394Z,21.20
2023-04-08T12:39:19.464Z,23.27
2023-04-08T12:41:47.569Z,21.27
2023-04-08T12:44:15.565Z,22.50
2023-04-08T12:46:43.839Z,23.13
2023-04-08T12:49:12.078Z,21.90
2023-04-08T12:51:41.586Z,22.80
2023-04-08T12:54:09.733Z,21.73
2023-04-08T12:56:39.056Z,23.23
2023-04-08T12:59:07.052Z,22.43
2023-04-08T13:01:35.203Z,22.03
2023-04-08T13:04:03.686Z,21.87
2023-04-08T13:06:31.976Z,20.30
2023-04-08T13:09:01.439Z,23.63
2023-04-08T13:11:29.495Z,22.67
2023-04-08T13:13:57.509Z,21.77
2023-04-08T13:16:25.711Z,23.80
2023-04-08T13:18:53.811Z,21.07
2023-04-08T13:21:21.843Z,22.40
2023-04-08T13:23:49.887Z,23.30
2023-04-08T13:26:19.243Z,24.73
2023-04-08T13:28:56.507Z,21.73
2023-04-08T13:31:25.800Z,21.93
2023-04-08T13:33:56.235Z,20.27
2023-04-08T13:36:26.791Z,23.83
2023-04-08T13:38:55.006Z,21.07
2023-04-08T13:41:25.358Z,22.37
2023-04-08T13:43:53.702Z,22.87
2023-04-08T13:46:21.877Z,23.60
2023-04-08T13:48:50.313Z,22.53
2023-04-08T13:51:18.560Z,22.73
2023-04-08T13:53:46.920Z,24.40
2023-04-08T13:56:14.940Z,24.17
2023-04-08T13:58:49.656Z,31.93
2023-04-08T14:01:20.579Z,26.73
2023-04-08T14:03:49.888Z,28.17
2023-04-08T14:06:17.924Z,29.30
2023-04-08T14:08:45.959Z,27.13
2023-04-08T14:11:13.983Z,24.73
2023-04-08T14:13:42.009Z,23.07
2023-04-08T14:16:11.389Z,21.00
2023-04-08T14:18:39.421Z,22.50
2023-04-08T14:21:07.689Z,29.73
2023-04-08T14:23:35.825Z,27.97
2023-04-08T14:26:03.882Z,24.37
2023-04-08T14:28:31.902Z,26.40
2023-04-08T14:30:59.964Z,24.10
2023-04-08T14:33:29.380Z,23.73
2023-04-08T14:35:58.939Z,24.40
2023-04-08T14:38:27.816Z,27.63
2023-04-08T14:40:55.824Z,27.33
2023-04-08T14:43:23.883Z,27.67
2023-04-08T14:45:52.499Z,27.83
2023-04-08T14:48:21.026Z,25.40
2023-04-08T14:50:50.570Z,30.60
2023-04-08T14:53:18.625Z,30.83
2023-04-08T14:55:46.851Z,31.33
2023-04-08T14:58:14.997Z,32.60
2023-04-08T15:00:44.632Z,32.33
2023-04-08T15:03:12.788Z,29.83
2023-04-08T15:05:41.022Z,29.73
2023-04-08T15:08:10.843Z,27.57
2023-04-08T15:10:39.005Z,28.27
2023-04-08T15:13:07.140Z,27.57
2023-04-08T15:15:35.378Z,30.17
2023-04-08T15:18:03.458Z,27.83
2023-04-08T15:20:31.586Z,24.27
2023-04-08T15:22:59.675Z,27.13
2023-04-08T15:25:29.125Z,26.93
2023-04-08T15:27:57.197Z,30.43
2023-04-08T15:30:25.560Z,27.17
2023-04-08T15:32:55.714Z,31.27
2023-04-08T15:35:25.447Z,30.00
2023-04-08T15:37:53.489Z,27.63
2023-04-08T15:40:22.537Z,27.23
2023-04-08T15:42:51.888Z,24.93
2023-04-08T15:45:20.602Z,27.80
2023-04-08T15:47:48.678Z,26.00
2023-04-08T15:50:17.369Z,27.00
2023-04-08T15:52:45.632Z,26.10
2023-04-08T15:55:14.014Z,27.13
2023-04-08T15:57:42.395Z,26.93
2023-04-08T16:00:15.474Z,26.27
2023-04-08T16:02:46.580Z,27.47
2023-04-08T16:05:14.911Z,29.30
2023-04-08T16:07:43.115Z,26.60
2023-04-08T16:10:11.641Z,25.40
2023-04-08T16:12:39.716Z,28.27
2023-04-08T16:15:08.464Z,27.30
2023-04-08T16:17:37.991Z,28.63
2023-04-08T16:20:06.976Z,31.87
2023-04-08T16:22:35.052Z,30.20
2023-04-08T16:25:03.392Z,32.13
2023-04-08T16:27:31.404Z,28.97
2023-04-08T16:29:59.412Z,30.93
2023-04-08T16:32:27.915Z,27.77
2023-04-08T16:34:57.494Z,31.13
2023-04-08T16:37:25.953Z,30.30
2023-04-08T16:39:54.436Z,28.87
2023-04-08T16:42:22.543Z,28.73
2023-04-08T16:44:50.725Z,31.53
2023-04-08T16:47:18.770Z,26.83
2023-04-08T16:49:46.905Z,28.97
2023-04-08T16:52:16.295Z,28.87
2023-04-08T16:54:44.436Z,27.73
2023-04-08T16:57:12.551Z,27.60
2023-04-08T16:59:40.661Z,28.83
2023-04-08T17:02:08.891Z,27.07
2023-04-08T17:04:37.011Z,32.17
2023-04-08T17:07:05.463Z,33.23
2023-04-08T17:09:34.908Z,33.27
2023-04-08T17:12:03.154Z,40.40
2023-04-08T17:14:31.291Z,36.90
2023-04-08T17:16:59.308Z,42.77
2023-04-08T17:19:27.422Z,34.60
2023-04-08T17:21:55.464Z,39.93
2023-04-08T17:24:23.540Z,36.97
2023-04-08T17:26:53.063Z,35.63
2023-04-08T17:29:21.084Z,43.63
2023-04-08T17:31:49.114Z,42.53
2023-04-08T17:34:17.238Z,45.17
2023-04-08T17:36:45.932Z,47.30
2023-04-08T17:39:13.988Z,50.17
2023-04-08T17:41:43.414Z,54.97
2023-04-08T17:44:14.030Z,51.10
2023-04-08T17:46:43.143Z,58.97
2023-04-08T17:49:12.843Z,52.10
2023-04-08T17:51:41.105Z,57.93
2023-04-08T17:54:09.183Z,49.80
2023-04-08T17:56:37.296Z,54.13
2023-04-08T17:59:05.410Z,55.47
2023-04-08T18:01:37.289Z,48.23
2023-04-08T18:04:08.265Z,53.37
2023-04-08T18:06:36.944Z,48.73
2023-04-08T18:09:05.429Z,47.17
2023-04-08T18:11:33.878Z,50.47
2023-04-08T18:14:01.972Z,55.50
2023-04-08T18:16:30.071Z,54.80
2023-04-08T18:18:59.453Z,58.60
2023-04-08T18:21:27.444Z,59.87
2023-04-08T18:23:55.537Z,54.97
2023-04-08T18:26:23.600Z,59.00
2023-04-08T18:28:51.610Z,59.30
2023-04-08T18:31:19.685Z,60.40
2023-04-08T18:33:47.787Z,60.97
2023-04-08T18:36:17.425Z,65.90
2023-04-08T18:38:45.690Z,77.70
2023-04-08T18:41:13.907Z,90.57
2023-04-08T18:43:42.001Z,96.30
2023-04-08T18:46:10.108Z,104.97
2023-04-08T18:48:38.262Z,103.20
2023-04-08T18:51:06.382Z,91.07
2023-04-08T18:53:36.059Z,87.87
2023-04-08T18:56:04.711Z,81.07
2023-04-08T18:58:33.420Z,77.13
2023-04-08T19:01:01.453Z,65.90
2023-04-08T19:03:29.581Z,72.23
2023-04-08T19:05:57.619Z,79.23
2023-04-08T19:08:25.663Z,73.63
2023-04-08T19:10:55.091Z,73.60
2023-04-08T19:13:23.786Z,72.87
2023-04-08T19:15:51.859Z,70.70
2023-04-08T19:18:19.975Z,72.97
2023-04-08T19:20:48.144Z,71.17
2023-04-08T19:23:18.786Z,72.83
2023-04-08T19:25:47.325Z,64.30
2023-04-08T19:28:16.723Z,64.70
2023-04-08T19:30:44.878Z,58.67
2023-04-08T19:33:13.775Z,61.53
2023-04-08T19:35:42.131Z,63.57
2023-04-08T19:38:10.196Z,70.93
2023-04-08T19:40:38.315Z,66.73
2023-04-08T19:43:06.370Z,64.70
2023-04-08T19:45:35.786Z,66.27
2023-04-08T19:48:03.827Z,59.63
2023-04-08T19:50:31.926Z,60.87
2023-04-08T19:53:00.012Z,60.97
2023-04-08T19:55:28.071Z,65.93
2023-04-08T19:57:56.395Z,61.17
2023-04-08T20:00:25.915Z,69.27
2023-04-08T20:02:55.588Z,62.47
2023-04-08T20:05:23.970Z,66.83
2023-04-08T20:07:52.079Z,63.77
2023-04-08T20:10:20.582Z,71.73
2023-04-08T20:12:48.607Z,69.33
2023-04-08T20:15:24.677Z,70.67
2023-04-08T20:17:55.300Z,72.93
2023-04-08T20:20:24.016Z,58.87
2023-04-08T20:22:52.013Z,57.00
2023-04-08T20:25:20.189Z,57.53
2023-04-08T20:27:48.216Z,63.70
2023-04-08T20:30:16.669Z,60.10
2023-04-08T20:32:44.726Z,65.50
2023-04-08T20:35:14.775Z,66.73
2023-04-08T20:37:43.395Z,68.07
2023-04-08T20:40:11.992Z,65.43
2023-04-08T20:42:40.562Z,65.73
2023-04-08T20:45:10.568Z,70.03
2023-04-08T20:47:39.008Z,67.57
2023-04-08T20:50:09.156Z,65.33
2023-04-08T20:52:39.691Z,67.90
2023-04-08T20:55:09.596Z,56.63
2023-04-08T20:57:37.748Z,57.07
2023-04-08T21:00:07.580Z,64.67
2023-04-08T21:02:36.414Z,62.33
2023-04-08T21:05:05.025Z,60.23
2023-04-08T21:07:33.145Z,59.87
2023-04-08T21:10:02.685Z,61.50
2023-04-08T21:12:31.200Z,57.97
2023-04-08T21:14:59.634Z,58.77
2023-04-08T21:17:30.634Z,58.00
2023-04-08T21:19:59.260Z,58.00
2023-04-08T21:22:27.357Z,55.00
2023-04-08T21:24:56.832Z,58.30
2023-04-08T21:27:26.469Z,56.60
2023-04-08T21:29:54.594Z,56.63
2023-04-08T21:32:22.735Z,59.17
2023-04-08T21:34:56.695Z,68.63
2023-04-08T21:37:24.765Z,68.07
2023-04-08T21:39:53.791Z,67.67
2023-04-08T21:42:22.880Z,60.73
2023-04-08T21:44:52.404Z,68.70
2023-04-08T21:47:20.480Z,61.17
2023-04-08T21:49:48.987Z,60.83
2023-04-08T21:52:17.843Z,68.83
2023-04-08T21:54:49.575Z,60.33
2023-04-08T21:57:17.611Z,58.93
2023-04-08T21:59:45.876Z,60.93
2023-04-08T22:02:15.919Z,48.13
2023-04-08T22:04:44.703Z,59.13
2023-04-08T22:07:13.242Z,69.20
2023-04-08T22:09:41.509Z,65.63
2023-04-08T22:12:11.132Z,63.13
2023-04-08T22:14:39.257Z,66.40
2023-04-08T22:17:07.418Z,63.60
2023-04-08T22:19:36.847Z,70.63
2023-04-08T22:22:04.925Z,76.27
2023-04-08T22:24:33.027Z,77.57
2023-04-08T22:27:01.332Z,79.97
2023-04-08T22:29:29.363Z,96.20
2023-04-08T22:31:57.419Z,95.73
2023-04-08T22:34:25.585Z,100.33
2023-04-08T22:36:55.003Z,114.63
2023-04-08T22:39:23.045Z,107.33
2023-04-08T22:41:51.124Z,105.60
2023-04-08T22:44:19.163Z,110.57
2023-04-08T22:46:47.216Z,103.87
2023-04-08T22:49:15.685Z,104.50
2023-04-08T22:51:43.813Z,103.10
2023-04-08T22:54:13.226Z,93.17
2023-04-08T22:56:41.282Z,104.17
2023-04-08T22:59:09.320Z,95.77
2023-04-08T23:01:37.674Z,102.57
2023-04-08T23:04:06.047Z,90.00
2023-04-08T23:06:34.181Z,98.87
2023-04-08T23:09:02.199Z,104.53
2023-04-08T23:11:31.603Z,104.27
2023-04-08T23:13:59.628Z,98.53
2023-04-08T23:16:27.625Z,104.63
2023-04-08T23:18:55.692Z,104.97
2023-04-08T23:21:23.742Z,103.80
2023-04-08T23:23:51.842Z,104.83
2023-04-08T23:26:20.847Z,105.17
2023-04-08T23:28:50.636Z,105.30
2023-04-08T23:31:19.068Z,100.40
2023-04-08T23:33:47.168Z,100.47
2023-04-08T23:36:15.356Z,107.60
2023-04-08T23:38:43.378Z,98.43
2023-04-08T23:41:11.410Z,100.97
2023-04-08T23:43:39.436Z,104.83
2023-04-08T23:46:08.796Z,106.30
2023-04-08T23:48:36.834Z,101.60
2023-04-08T23:51:05.542Z,110.40
2023-04-08T23:53:33.555Z,111.17
2023-04-08T23:56:06.621Z,110.90
2023-04-08T23:58:34.731Z,105.77
